createdAt,value
2022-11-29T06:18:59.046Z,5.40
2022-11-29T06:22:20.768Z,5.57
2022-11-29T06:25:53.290Z,4.93
2022-11-29T06:29:12.123Z,4.38
2022-11-29T06:32:34.619Z,6.95
2022-11-29T06:35:57.933Z,5.68
2022-11-29T06:39:00.081Z,4.78
2022-11-29T06:42:01.853Z,6.82
2022-11-29T06:45:04.391Z,5.15
2022-11-29T06:48:06.792Z,4.47
2022-11-29T06:51:27.376Z,4.93
2022-11-29T06:54:38.833Z,7.00
2022-11-29T06:57:55.979Z,3.60
2022-11-29T07:01:04.797Z,3.90
2022-11-29T07:04:22.247Z,4.43
2022-11-29T07:07:24.340Z,4.18
2022-11-29T07:10:26.180Z,3.88
2022-11-29T07:13:28.158Z,7.72
2022-11-29T07:16:48.412Z,4.55
2022-11-29T07:19:57.017Z,4.13
2022-11-29T07:23:50.890Z,4.70
2022-11-29T07:27:11.615Z,4.15
2022-11-29T07:30:16.988Z,6.88
2022-11-29T07:33:22.342Z,10.52
2022-11-29T07:36:49.610Z,4.30
2022-11-29T07:40:35.959Z,3.63
2022-11-29T07:44:04.345Z,4.75
2022-11-29T07:47:06.109Z,6.03
2022-11-29T07:50:08.407Z,5.38
2022-11-29T07:53:19.914Z,4.60
2022-11-29T07:56:21.563Z,4.38
2022-11-29T07:59:23.425Z,4.45
2022-11-29T08:02:31.454Z,6.35
2022-11-29T08:05:33.168Z,5.60
2022-11-29T08:08:37.879Z,5.18
2022-11-29T08:11:44.788Z,5.28
2022-11-29T08:14:46.680Z,8.77
2022-11-29T08:17:48.635Z,5.55
2022-11-29T08:20:50.406Z,5.43
2022-11-29T08:23:52.316Z,4.85
2022-11-29T08:26:54.336Z,6.13
2022-11-29T08:29:55.994Z,5.60
2022-11-29T08:32:57.696Z,9.30
2022-11-29T08:36:05.740Z,7.63
2022-11-29T08:39:09.609Z,6.50
2022-11-29T08:42:11.531Z,5.22
2022-11-29T08:45:13.339Z,6.07
2022-11-29T08:48:15.367Z,5.68
2022-11-29T08:51:17.088Z,4.93
2022-11-29T08:54:18.795Z,8.38
2022-11-29T09:00:43.575Z,8.05
2022-11-29T09:04:00.598Z,6.72
2022-11-29T09:07:02.421Z,4.20
2022-11-29T09:10:08.096Z,4.15
2022-11-29T09:13:10.162Z,3.78
2022-11-29T09:16:13.557Z,7.43
2022-11-29T09:19:15.371Z,5.65
2022-11-29T09:22:18.197Z,7.85
2022-11-29T09:25:19.875Z,8.18
2022-11-29T09:28:21.674Z,7.25
2022-11-29T09:31:23.501Z,6.93
2022-11-29T09:34:25.249Z,7.40
2022-11-29T09:37:27.255Z,3.92
2022-11-29T09:40:40.213Z,5.60
2022-11-29T09:44:00.822Z,7.90
2022-11-29T09:47:25.024Z,4.00
2022-11-29T09:50:35.750Z,9.18
2022-11-29T09:54:08.282Z,8.10
2022-11-29T09:57:10.982Z,4.85
2022-11-29T10:00:17.008Z,8.38
2022-11-29T10:03:29.603Z,7.25
2022-11-29T10:06:38.918Z,9.25
2022-11-29T10:10:02.333Z,6.32
2022-11-29T10:13:26.200Z,4.82
2022-11-29T10:16:42.150Z,4.60
2022-11-29T10:19:46.775Z,5.18
2022-11-29T10:23:20.493Z,8.60
2022-11-29T10:26:23.066Z,4.18
2022-11-29T10:29:25.061Z,7.75
2022-11-29T10:32:30.765Z,9.65
2022-11-29T10:35:32.575Z,4.72
2022-11-29T10:38:34.285Z,7.75
2022-11-29T10:41:35.960Z,8.68
2022-11-29T10:44:37.596Z,4.88
2022-11-29T10:47:39.264Z,6.90
2022-11-29T10:50:43.870Z,8.30
2022-11-29T10:53:46.571Z,8.90
2022-11-29T10:56:48.442Z,6.30
2022-11-29T10:59:58.551Z,8.10
2022-11-29T11:03:18.404Z,8.32
2022-11-29T11:06:20.906Z,5.30
2022-11-29T11:09:30.799Z,9.27
2022-11-29T11:12:33.572Z,5.80
2022-11-29T11:15:35.455Z,6.22
2022-11-29T11:18:37.354Z,5.68
2022-11-29T11:21:39.074Z,8.25
2022-11-29T11:24:41.285Z,8.20
2022-11-29T11:27:43.145Z,5.03
2022-11-29T11:30:54.023Z,3.47
2022-11-29T11:33:55.755Z,8.85
2022-11-29T11:37:17.502Z,8.60
2022-11-29T11:43:23.185Z,5.47
2022-11-29T11:46:48.363Z,8.82
2022-11-29T11:50:02.423Z,4.57
2022-11-29T11:53:06.574Z,5.85
2022-11-29T11:56:09.689Z,6.10
2022-11-29T11:59:24.339Z,7.70
2022-11-29T12:02:39.940Z,10.95
2022-11-29T12:08:48.409Z,6.15
2022-11-29T12:12:19.836Z,5.32
2022-11-29T12:15:28.793Z,6.65
2022-11-29T12:18:46.544Z,5.88
2022-11-29T12:21:52.566Z,8.40
2022-11-29T12:24:57.853Z,9.63
2022-11-29T12:27:59.732Z,9.30
2022-11-29T12:31:25.341Z,6.53
2022-11-29T12:34:36.157Z,6.28
2022-11-29T12:38:20.772Z,8.32
2022-11-29T12:41:26.091Z,6.10
2022-11-29T12:44:54.310Z,6.45
2022-11-29T12:48:22.053Z,6.22
2022-11-29T12:51:39.572Z,4.90
2022-11-29T12:55:18.600Z,8.32
2022-11-29T12:58:23.087Z,7.00
2022-11-29T13:01:56.915Z,8.00
2022-11-29T13:08:27.078Z,4.93
2022-11-29T13:11:32.685Z,7.32
2022-11-29T13:14:46.330Z,4.70
2022-11-29T13:18:17.057Z,4.13
2022-11-29T13:21:57.093Z,5.13
2022-11-29T13:25:01.586Z,5.93
2022-11-29T13:28:24.154Z,4.70
2022-11-29T13:31:26.162Z,6.38
2022-11-29T13:34:41.449Z,5.13
2022-11-29T13:37:53.563Z,5.38
2022-11-29T13:41:02.558Z,8.45
2022-11-29T13:44:36.852Z,4.97
2022-11-29T13:47:55.750Z,5.18
2022-11-29T13:50:57.378Z,5.07
2022-11-29T13:54:03.599Z,8.07
2022-11-29T13:57:08.893Z,5.25
2022-11-29T14:00:34.615Z,8.60
2022-11-29T14:03:38.484Z,5.43
2022-11-29T14:06:40.138Z,4.57
2022-11-29T14:09:58.626Z,8.10
2022-11-29T14:13:01.858Z,5.32
2022-11-29T14:16:04.273Z,4.55
2022-11-29T14:19:20.276Z,4.93
2022-11-29T14:22:22.246Z,5.15
2022-11-29T14:28:46.847Z,5.28
2022-11-29T14:31:49.832Z,9.35
2022-11-29T14:35:02.129Z,6.82
2022-11-29T14:38:15.897Z,7.38
2022-11-29T14:41:23.577Z,5.03
2022-11-29T14:44:28.001Z,5.05
2022-11-29T14:47:38.215Z,8.90
2022-11-29T14:50:40.010Z,8.15
2022-11-29T14:53:42.630Z,9.00
2022-11-29T14:56:45.494Z,5.05
2022-11-29T14:59:53.362Z,7.90
2022-11-29T15:03:01.344Z,4.88
2022-11-29T15:06:18.016Z,6.07
2022-11-29T15:09:20.421Z,5.80
2022-11-29T15:12:26.720Z,5.75
2022-11-29T15:15:28.365Z,10.55
2022-11-29T15:18:48.287Z,7.75
2022-11-29T15:22:14.791Z,4.78
2022-11-29T15:25:19.089Z,5.05
2022-11-29T15:28:25.933Z,5.85
2022-11-29T15:31:27.701Z,6.65
2022-11-29T15:34:31.397Z,9.98
2022-11-29T15:37:37.212Z,8.38
2022-11-29T15:40:40.849Z,6.78
2022-11-29T15:43:42.649Z,8.63
2022-11-29T15:46:44.546Z,11.23
2022-11-29T15:49:46.656Z,8.27
2022-11-29T15:52:48.284Z,5.43
2022-11-29T15:55:50.543Z,5.07
2022-11-29T15:58:52.526Z,6.22
2022-11-29T16:01:54.836Z,8.45
2022-11-29T16:05:01.799Z,9.65
2022-11-29T16:08:21.854Z,7.65
2022-11-29T16:11:25.065Z,9.93
2022-11-29T16:14:28.135Z,6.60
2022-11-29T16:17:34.238Z,7.10
2022-11-29T16:20:35.897Z,11.27
2022-11-29T16:23:43.693Z,6.80
2022-11-29T16:26:45.756Z,6.70
2022-11-29T16:29:47.527Z,7.50
2022-11-29T16:33:12.609Z,10.02
2022-11-29T16:36:25.134Z,6.95
2022-11-29T16:39:27.173Z,6.95
2022-11-29T16:42:30.232Z,6.47
2022-11-29T16:45:39.001Z,6.55
2022-11-29T16:48:42.298Z,7.60
2022-11-29T16:51:47.937Z,7.45
2022-11-29T16:54:49.986Z,8.57
2022-11-29T16:57:53.089Z,7.88
2022-11-29T17:00:55.364Z,7.15
2022-11-29T17:03:57.842Z,7.80
2022-11-29T17:06:59.558Z,7.50
2022-11-29T17:10:01.246Z,8.25
2022-11-29T17:13:04.403Z,9.75
2022-11-29T17:16:11.489Z,7.25
2022-11-29T17:19:13.418Z,8.57
2022-11-29T17:22:15.109Z,8.80
2022-11-29T17:25:16.833Z,9.95
2022-11-29T17:28:18.765Z,10.50
2022-11-29T17:31:21.880Z,12.18
2022-11-29T17:34:23.737Z,9.18
2022-11-29T17:37:25.686Z,10.00
2022-11-29T17:40:27.411Z,8.27
2022-11-29T17:43:29.111Z,10.02
2022-11-29T17:46:34.920Z,13.82
2022-11-29T17:49:36.554Z,9.68
2022-11-29T17:52:39.186Z,8.98
2022-11-29T17:55:40.820Z,12.27
2022-11-29T17:58:42.922Z,9.88
2022-11-29T18:01:47.046Z,15.10
2022-11-29T18:04:49.012Z,12.05
2022-11-29T18:08:00.228Z,13.20
2022-11-29T18:11:03.818Z,10.82
2022-11-29T18:14:05.526Z,14.60
2022-11-29T18:17:07.921Z,10.52
2022-11-29T18:20:09.910Z,9.70
2022-11-29T18:23:11.617Z,11.93
2022-11-29T18:26:15.578Z,9.52
2022-11-29T18:29:17.523Z,10.30
2022-11-29T18:32:19.189Z,14.77
2022-11-29T18:35:20.924Z,10.90
2022-11-29T18:38:22.797Z,9.80
2022-11-29T18:41:24.597Z,11.70
2022-11-29T18:44:29.353Z,12.85
2022-11-29T18:47:32.971Z,11.18
2022-11-29T18:50:34.627Z,10.25
2022-11-29T18:53:36.919Z,10.18
2022-11-29T18:56:38.758Z,14.75
2022-11-29T18:59:40.483Z,10.98
2022-11-29T19:02:42.376Z,13.80
2022-11-29T19:05:54.277Z,11.43
2022-11-29T19:08:58.375Z,11.43
2022-11-29T19:12:01.078Z,14.93
2022-11-29T19:15:03.287Z,13.68
2022-11-29T19:18:05.030Z,11.70
2022-11-29T19:21:16.180Z,12.73
2022-11-29T19:24:18.457Z,13.68
2022-11-29T19:27:21.202Z,10.45
2022-11-29T19:30:22.874Z,11.25
2022-11-29T19:33:24.539Z,11.73
2022-11-29T19:36:30.356Z,11.10
2022-11-29T19:39:33.875Z,14.10
2022-11-29T19:42:35.538Z,11.70
2022-11-29T19:45:40.403Z,12.70
2022-11-29T19:48:42.316Z,13.30
2022-11-29T19:51:44.022Z,12.90
2022-11-29T19:54:45.689Z,11.10
2022-11-29T19:57:47.541Z,11.23
2022-11-29T20:00:49.208Z,12.32
2022-11-29T20:03:51.842Z,13.05
2022-11-29T20:06:54.685Z,12.55
2022-11-29T20:09:56.322Z,11.75
2022-11-29T20:12:57.974Z,11.23
2022-11-29T20:16:04.222Z,12.75
2022-11-29T20:19:13.922Z,12.75
2022-11-29T20:22:15.619Z,16.23
2022-11-29T20:25:17.305Z,15.00
2022-11-29T20:28:19.044Z,11.48
2022-11-29T20:31:22.629Z,10.23
2022-11-29T20:34:24.544Z,17.50
2022-11-29T20:37:26.543Z,11.95
2022-11-29T20:40:31.670Z,15.95
2022-11-29T20:43:41.091Z,11.35
2022-11-29T20:46:43.040Z,11.50
2022-11-29T20:49:45.187Z,15.95
2022-11-29T20:52:55.891Z,10.98
2022-11-29T20:55:57.627Z,14.02
2022-11-29T20:58:59.556Z,11.98
2022-11-29T21:02:02.496Z,14.30
2022-11-29T21:05:05.982Z,12.63
2022-11-29T21:08:08.385Z,13.27
2022-11-29T21:11:10.519Z,11.57
2022-11-29T21:14:12.453Z,13.05
2022-11-29T21:17:14.633Z,11.18
2022-11-29T21:20:22.563Z,12.75
2022-11-29T21:23:56.797Z,11.20
2022-11-29T21:26:58.723Z,12.25
2022-11-29T21:30:03.285Z,12.80
2022-11-29T21:33:05.327Z,16.15
2022-11-29T21:36:07.262Z,15.57
2022-11-29T21:39:12.530Z,12.95
2022-11-29T21:42:14.229Z,13.75
2022-11-29T21:45:16.983Z,12.35
2022-11-29T21:48:37.751Z,14.43
2022-11-29T21:51:39.486Z,13.13
2022-11-29T21:54:41.280Z,12.38
2022-11-29T21:57:43.164Z,13.02
2022-11-29T22:00:45.203Z,15.18
2022-11-29T22:03:47.046Z,13.50
2022-11-29T22:06:48.861Z,12.55
2022-11-29T22:09:50.545Z,14.88
2022-11-29T22:12:52.850Z,12.23
2022-11-29T22:15:54.647Z,17.35
2022-11-29T22:18:56.325Z,14.13
2022-11-29T22:21:59.581Z,11.82
2022-11-29T22:25:01.241Z,12.73
2022-11-29T22:28:03.011Z,14.25
2022-11-29T22:31:06.068Z,13.35
2022-11-29T22:34:07.784Z,13.43
2022-11-29T22:37:09.533Z,12.05
2022-11-29T22:40:11.529Z,12.82
2022-11-29T22:43:13.160Z,12.90
2022-11-29T22:46:19.439Z,11.63
2022-11-29T22:49:21.397Z,15.60
2022-11-29T22:52:23.047Z,10.88
2022-11-29T22:55:24.676Z,11.63
2022-11-29T22:58:26.586Z,10.93
2022-11-29T23:01:29.453Z,12.02
2022-11-29T23:04:31.168Z,11.38
2022-11-29T23:07:33.128Z,15.27
2022-11-29T23:10:34.805Z,12.95
2022-11-29T23:13:37.553Z,12.20
2022-11-29T23:16:41.731Z,11.25
2022-11-29T23:19:43.481Z,13.65
2022-11-29T23:22:45.221Z,13.85
2022-11-29T23:25:48.643Z,12.02
2022-11-29T23:28:50.792Z,13.13
2022-11-29T23:31:52.551Z,13.40
2022-11-29T23:34:54.250Z,13.45
2022-11-29T23:37:56.022Z,13.27
2022-11-29T23:40:57.649Z,14.45
2022-11-29T23:44:02.043Z,13.40
2022-11-29T23:47:03.780Z,13.48
2022-11-29T23:50:06.080Z,12.57
2022-11-29T23:53:07.713Z,13.43
2022-11-29T23:56:13.946Z,12.85
2022-11-29T23:59:15.879Z,13.35
